sensor_id;sensor_type;location;lat;lon;timestamp;pressure;altitude;pressure_sealevel;temperature
49785;BMP280;35679;38.732;-121.358;2022-08-11T00:01:25;101086.84;;;27.48
49785;BMP280;35679;38.732;-121.358;2022-08-11T00:04:15;101083.63;;;27.51
49785;BMP280;35679;38.732;-121.358;2022-08-11T00:07:05;101079.28;;;27.55
49785;BMP280;35679;38.732;-121.358;2022-08-11T00:09:56;101077.09;;;27.57
49785;BMP280;35679;38.732;-121.358;2022-08-11T00:12:55;101069.53;;;27.59
49785;BMP280;35679;38.732;-121.358;2022-08-11T00:15:45;101072.81;;;27.61
49785;BMP280;35679;38.732;-121.358;2022-08-11T00:18:49;101075.78;;;27.64
49785;BMP280;35679;38.732;-121.358;2022-08-11T00:21:42;101076.31;;;27.66
49785;BMP280;35679;38.732;-121.358;2022-08-11T00:24:52;101073.06;;;27.69
49785;BMP280;35679;38.732;-121.358;2022-08-11T00:27:48;101073.91;;;27.70
49785;BMP280;35679;38.732;-121.358;2022-08-11T00:30:38;101072.25;;;27.74
49785;BMP280;35679;38.732;-121.358;2022-08-11T00:33:42;101079.31;;;27.75
49785;BMP280;35679;38.732;-121.358;2022-08-11T00:36:44;101079.03;;;27.76
49785;BMP280;35679;38.732;-121.358;2022-08-11T00:39:42;101078.25;;;27.81
49785;BMP280;35679;38.732;-121.358;2022-08-11T00:42:48;101069.28;;;27.80
49785;BMP280;35679;38.732;-121.358;2022-08-11T00:45:52;101067.91;;;27.83
49785;BMP280;35679;38.732;-121.358;2022-08-11T00:51:58;101065.22;;;27.87
49785;BMP280;35679;38.732;-121.358;2022-08-11T01:11:08;101056.53;;;28.00
49785;BMP280;35679;38.732;-121.358;2022-08-11T01:21:16;101056.25;;;28.07
49785;BMP280;35679;38.732;-121.358;2022-08-11T01:47:37;101053.78;;;28.15
49785;BMP280;35679;38.732;-121.358;2022-08-11T01:51:00;101042.94;;;28.15
49785;BMP280;35679;38.732;-121.358;2022-08-11T01:54:40;101048.13;;;28.17
49785;BMP280;35679;38.732;-121.358;2022-08-11T01:57:35;101054.38;;;28.17
49785;BMP280;35679;38.732;-121.358;2022-08-11T02:00:28;101048.66;;;28.19
49785;BMP280;35679;38.732;-121.358;2022-08-11T02:22:41;101058.16;;;28.21
49785;BMP280;35679;38.732;-121.358;2022-08-11T02:26:09;101067.94;;;28.22
49785;BMP280;35679;38.732;-121.358;2022-08-11T02:33:21;101064.91;;;28.44
49785;BMP280;35679;38.732;-121.358;2022-08-11T02:36:24;101072.50;;;28.47
49785;BMP280;35679;38.732;-121.358;2022-08-11T02:39:19;101075.50;;;28.35
49785;BMP280;35679;38.732;-121.358;2022-08-11T02:43:06;101084.22;;;28.27
49785;BMP280;35679;38.732;-121.358;2022-08-11T02:53:10;101093.16;;;28.23
49785;BMP280;35679;38.732;-121.358;2022-08-11T03:09:18;101105.13;;;28.17
49785;BMP280;35679;38.732;-121.358;2022-08-11T03:12:23;101109.69;;;28.16
49785;BMP280;35679;38.732;-121.358;2022-08-11T03:19:14;101114.56;;;28.14
49785;BMP280;35679;38.732;-121.358;2022-08-11T03:25:28;101123.28;;;28.11
49785;BMP280;35679;38.732;-121.358;2022-08-11T03:29:00;101123.56;;;28.10
49785;BMP280;35679;38.732;-121.358;2022-08-11T03:31:50;101123.56;;;28.10
49785;BMP280;35679;38.732;-121.358;2022-08-11T03:34:47;101126.50;;;28.08
49785;BMP280;35679;38.732;-121.358;2022-08-11T03:37:55;101126.78;;;28.07
49785;BMP280;35679;38.732;-121.358;2022-08-11T03:41:26;101125.72;;;28.03
49785;BMP280;35679;38.732;-121.358;2022-08-11T03:58:27;101127.88;;;27.96
49785;BMP280;35679;38.732;-121.358;2022-08-11T04:14:46;101140.06;;;27.88
49785;BMP280;35679;38.732;-121.358;2022-08-11T04:34:34;101165.03;;;27.81
49785;BMP280;35679;38.732;-121.358;2022-08-11T04:47:18;101180.75;;;27.74
49785;BMP280;35679;38.732;-121.358;2022-08-11T04:51:06;101186.72;;;27.71
49785;BMP280;35679;38.732;-121.358;2022-08-11T05:04:45;101189.34;;;27.56
49785;BMP280;35679;38.732;-121.358;2022-08-11T05:11:49;101190.94;;;27.57
49785;BMP280;35679;38.732;-121.358;2022-08-11T05:14:50;101189.88;;;27.53
49785;BMP280;35679;38.732;-121.358;2022-08-11T05:18:08;101187.69;;;27.50
49785;BMP280;35679;38.732;-121.358;2022-08-11T05:21:21;101193.63;;;27.47
49785;BMP280;35679;38.732;-121.358;2022-08-11T05:25:00;101186.06;;;27.49
49785;BMP280;35679;38.732;-121.358;2022-08-11T05:28:32;101196.34;;;27.47
49785;BMP280;35679;38.732;-121.358;2022-08-11T05:31:42;101204.75;;;27.45
49785;BMP280;35679;38.732;-121.358;2022-08-11T05:34:52;101199.88;;;27.42
49785;BMP280;35679;38.732;-121.358;2022-08-11T05:37:43;101200.13;;;27.41
49785;BMP280;35679;38.732;-121.358;2022-08-11T05:40:53;101207.72;;;27.39
49785;BMP280;35679;38.732;-121.358;2022-08-11T05:44:03;101205.50;;;27.36
49785;BMP280;35679;38.732;-121.358;2022-08-11T05:47:23;101207.13;;;27.32
49785;BMP280;35679;38.732;-121.358;2022-08-11T05:50:31;101204.16;;;27.33
49785;BMP280;35679;38.732;-121.358;2022-08-11T05:53:57;101204.69;;;27.30
49785;BMP280;35679;38.732;-121.358;2022-08-11T05:57:24;101201.69;;;27.27
49785;BMP280;35679;38.732;-121.358;2022-08-11T06:00:45;101197.34;;;27.26
49785;BMP280;35679;38.732;-121.358;2022-08-11T06:03:34;101206.00;;;27.23
49785;BMP280;35679;38.732;-121.358;2022-08-11T06:07:04;101209.78;;;27.22
49785;BMP280;35679;38.732;-121.358;2022-08-11T06:09:57;101206.00;;;27.18
49785;BMP280;35679;38.732;-121.358;2022-08-11T06:12:52;101202.72;;;27.16
49785;BMP280;35679;38.732;-121.358;2022-08-11T06:15:45;101214.63;;;27.15
49785;BMP280;35679;38.732;-121.358;2022-08-11T06:18:36;101209.47;;;27.14
49785;BMP280;35679;38.732;-121.358;2022-08-11T06:21:26;101209.44;;;27.09
49785;BMP280;35679;38.732;-121.358;2022-08-11T06:24:15;101212.16;;;27.09
49785;BMP280;35679;38.732;-121.358;2022-08-11T06:27:06;101211.63;;;27.07
49785;BMP280;35679;38.732;-121.358;2022-08-11T06:30:01;101216.19;;;27.01
49785;BMP280;35679;38.732;-121.358;2022-08-11T06:32:51;101217.81;;;27.02
49785;BMP280;35679;38.732;-121.358;2022-08-11T06:38:59;101223.22;;;26.97
49785;BMP280;35679;38.732;-121.358;2022-08-11T06:42:10;101217.19;;;26.95
49785;BMP280;35679;38.732;-121.358;2022-08-11T06:45:31;101214.75;;;26.94
49785;BMP280;35679;38.732;-121.358;2022-08-11T06:48:24;101216.91;;;26.92
49785;BMP280;35679;38.732;-121.358;2022-08-11T06:51:14;101214.72;;;26.89
49785;BMP280;35679;38.732;-121.358;2022-08-11T06:54:04;101221.22;;;26.88
49785;BMP280;35679;38.732;-121.358;2022-08-11T06:56:55;101213.34;;;26.86
49785;BMP280;35679;38.732;-121.358;2022-08-11T07:00:19;101227.44;;;26.83
49785;BMP280;35679;38.732;-121.358;2022-08-11T07:03:21;101215.22;;;26.81
49785;BMP280;35679;38.732;-121.358;2022-08-11T07:06:37;101220.88;;;26.79
49785;BMP280;35679;38.732;-121.358;2022-08-11T07:09:59;101217.88;;;26.76
49785;BMP280;35679;38.732;-121.358;2022-08-11T07:13:13;101216.28;;;26.75
49785;BMP280;35679;38.732;-121.358;2022-08-11T07:16:32;101224.63;;;26.73
49785;BMP280;35679;38.732;-121.358;2022-08-11T07:19:26;101225.97;;;26.71
49785;BMP280;35679;38.732;-121.358;2022-08-11T07:22:35;101240.84;;;26.68
49785;BMP280;35679;38.732;-121.358;2022-08-11T07:25:46;101241.38;;;26.65
49785;BMP280;35679;38.732;-121.358;2022-08-11T07:29:13;101238.09;;;26.63
49785;BMP280;35679;38.732;-121.358;2022-08-11T07:32:23;101233.75;;;26.57
49785;BMP280;35679;38.732;-121.358;2022-08-11T07:35:17;101238.59;;;26.55
49785;BMP280;35679;38.732;-121.358;2022-08-11T07:38:15;101234.25;;;26.54
49785;BMP280;35679;38.732;-121.358;2022-08-11T07:41:15;101234.50;;;26.53
49785;BMP280;35679;38.732;-121.358;2022-08-11T07:44:04;101240.19;;;26.51
49785;BMP280;35679;38.732;-121.358;2022-08-11T07:46:58;101238.53;;;26.50
49785;BMP280;35679;38.732;-121.358;2022-08-11T07:50:07;101243.66;;;26.47
49785;BMP280;35679;38.732;-121.358;2022-08-11T07:53:17;101245.78;;;26.45
49785;BMP280;35679;38.732;-121.358;2022-08-11T07:56:09;101249.59;;;26.44
49785;BMP280;35679;38.732;-121.358;2022-08-11T07:59:08;101254.16;;;26.44
49785;BMP280;35679;38.732;-121.358;2022-08-11T08:02:36;101253.88;;;26.40
49785;BMP280;35679;38.732;-121.358;2022-08-11T08:05:46;101254.97;;;26.39
49785;BMP280;35679;38.732;-121.358;2022-08-11T08:09:16;101254.06;;;26.34
49785;BMP280;35679;38.732;-121.358;2022-08-11T08:12:25;101253.00;;;26.35
49785;BMP280;35679;38.732;-121.358;2022-08-11T08:15:33;101248.34;;;26.30
49785;BMP280;35679;38.732;-121.358;2022-08-11T08:18:41;101248.59;;;26.29
49785;BMP280;35679;38.732;-121.358;2022-08-11T08:21:30;101249.94;;;26.26
49785;BMP280;35679;38.732;-121.358;2022-08-11T08:24:20;101246.41;;;26.26
49785;BMP280;35679;38.732;-121.358;2022-08-11T08:27:10;101245.84;;;26.24
49785;BMP280;35679;38.732;-121.358;2022-08-11T08:30:03;101247.19;;;26.21
49785;BMP280;35679;38.732;-121.358;2022-08-11T08:36:08;101240.91;;;26.16
49785;BMP280;35679;38.732;-121.358;2022-08-11T08:39:03;101242.78;;;26.15
49785;BMP280;35679;38.732;-121.358;2022-08-11T08:41:56;101246.56;;;26.14
49785;BMP280;35679;38.732;-121.358;2022-08-11T08:45:16;101251.69;;;26.11
49785;BMP280;35679;38.732;-121.358;2022-08-11T08:48:10;101258.97;;;26.10
49785;BMP280;35679;38.732;-121.358;2022-08-11T08:51:10;101247.84;;;26.07
49785;BMP280;35679;38.732;-121.358;2022-08-11T08:54:41;101249.72;;;26.06
49785;BMP280;35679;38.732;-121.358;2022-08-11T08:57:33;101250.00;;;26.05
49785;BMP280;35679;38.732;-121.358;2022-08-11T09:00:39;101248.84;;;26.01
49785;BMP280;35679;38.732;-121.358;2022-08-11T09:03:29;101243.44;;;26.01
49785;BMP280;35679;38.732;-121.358;2022-08-11T09:06:39;101233.72;;;26.00
49785;BMP280;35679;38.732;-121.358;2022-08-11T09:09:35;101231.50;;;25.97
49785;BMP280;35679;38.732;-121.358;2022-08-11T09:12:29;101229.88;;;25.96
49785;BMP280;35679;38.732;-121.358;2022-08-11T09:15:25;101232.03;;;25.94
49785;BMP280;35679;38.732;-121.358;2022-08-11T09:18:17;101235.00;;;25.92
49785;BMP280;35679;38.732;-121.358;2022-08-11T09:21:06;101231.44;;;25.92
49785;BMP280;35679;38.732;-121.358;2022-08-11T09:23:56;101222.78;;;25.90
49785;BMP280;35679;38.732;-121.358;2022-08-11T09:27:19;101222.50;;;25.86
49785;BMP280;35679;38.732;-121.358;2022-08-11T09:30:10;101223.56;;;25.85
49785;BMP280;35679;38.732;-121.358;2022-08-11T09:33:01;101222.16;;;25.83
49785;BMP280;35679;38.732;-121.358;2022-08-11T09:35:54;101227.84;;;25.82
49785;BMP280;35679;38.732;-121.358;2022-08-11T09:38:44;101223.50;;;25.81
49785;BMP280;35679;38.732;-121.358;2022-08-11T09:41:52;101225.63;;;25.79
49785;BMP280;35679;38.732;-121.358;2022-08-11T09:45:02;101229.97;;;25.80
49785;BMP280;35679;38.732;-121.358;2022-08-11T09:47:52;101225.88;;;25.77
49785;BMP280;35679;38.732;-121.358;2022-08-11T09:50:44;101220.47;;;25.77
49785;BMP280;35679;38.732;-121.358;2022-08-11T09:53:38;101221.00;;;25.74
49785;BMP280;35679;38.732;-121.358;2022-08-11T09:56:33;101225.81;;;25.72
49785;BMP280;35679;38.732;-121.358;2022-08-11T09:59:41;101223.94;;;25.73
49785;BMP280;35679;38.732;-121.358;2022-08-11T10:02:31;101220.66;;;25.71
49785;BMP280;35679;38.732;-121.358;2022-08-11T10:05:20;101215.50;;;25.69
49785;BMP280;35679;38.732;-121.358;2022-08-11T10:08:29;101217.91;;;25.66
49785;BMP280;35679;38.732;-121.358;2022-08-11T10:11:22;101219.75;;;25.65
49785;BMP280;35679;38.732;-121.358;2022-08-11T10:14:13;101230.56;;;25.65
49785;BMP280;35679;38.732;-121.358;2022-08-11T10:17:22;101225.09;;;25.60
49785;BMP280;35679;38.732;-121.358;2022-08-11T10:20:12;101218.06;;;25.59
49785;BMP280;35679;38.732;-121.358;2022-08-11T10:23:02;101238.06;;;25.58
49785;BMP280;35679;38.732;-121.358;2022-08-11T10:26:10;101243.72;;;25.57
49785;BMP280;35679;38.732;-121.358;2022-08-11T10:29:28;101229.38;;;25.56
49785;BMP280;35679;38.732;-121.358;2022-08-11T10:32:38;101225.56;;;25.52
49785;BMP280;35679;38.732;-121.358;2022-08-11T10:35:47;101225.56;;;25.52
49785;BMP280;35679;38.732;-121.358;2022-08-11T10:38:37;101216.88;;;25.50
49785;BMP280;35679;38.732;-121.358;2022-08-11T10:41:28;101212.53;;;25.49
49785;BMP280;35679;38.732;-121.358;2022-08-11T10:44:57;101213.06;;;25.46
49785;BMP280;35679;38.732;-121.358;2022-08-11T10:47:46;101220.09;;;25.47
49785;BMP280;35679;38.732;-121.358;2022-08-11T10:50:36;101212.47;;;25.44
49785;BMP280;35679;38.732;-121.358;2022-08-11T10:53:47;101213.56;;;25.43
49785;BMP280;35679;38.732;-121.358;2022-08-11T10:56:59;101199.50;;;25.41
49785;BMP280;35679;38.732;-121.358;2022-08-11T11:00:09;101200.56;;;25.40
49785;BMP280;35679;38.732;-121.358;2022-08-11T11:03:05;101207.03;;;25.39
49785;BMP280;35679;38.732;-121.358;2022-08-11T11:09:30;101205.78;;;23.67
49785;BMP280;35679;38.732;-121.358;2022-08-11T11:12:27;101209.41;;;22.99
49785;BMP280;35679;38.732;-121.358;2022-08-11T11:15:37;101210.94;;;22.72
49785;BMP280;35679;38.732;-121.358;2022-08-11T11:19:08;101209.97;;;22.32
49785;BMP280;35679;38.732;-121.358;2022-08-11T11:21:59;101203.56;;;22.15
49785;BMP280;35679;38.732;-121.358;2022-08-11T11:38:06;101208.91;;;21.92
49785;BMP280;35679;38.732;-121.358;2022-08-11T11:41:01;101202.50;;;21.64
49785;BMP280;35679;38.732;-121.358;2022-08-11T11:44:10;101209.56;;;21.59
49785;BMP280;35679;38.732;-121.358;2022-08-11T11:47:01;101211.44;;;21.58
49785;BMP280;35679;38.732;-121.358;2022-08-11T11:49:50;101203.16;;;21.60
49785;BMP280;35679;38.732;-121.358;2022-08-11T11:52:41;101207.78;;;21.35
49785;BMP280;35679;38.732;-121.358;2022-08-11T11:55:31;101210.63;;;21.04
49785;BMP280;35679;38.732;-121.358;2022-08-11T11:58:22;101210.56;;;21.28
49785;BMP280;35679;38.732;-121.358;2022-08-11T12:01:31;101204.41;;;21.04
49785;BMP280;35679;38.732;-121.358;2022-08-11T12:04:22;101200.56;;;21.17
49785;BMP280;35679;38.732;-121.358;2022-08-11T12:07:11;101210.50;;;20.93
49785;BMP280;35679;38.732;-121.358;2022-08-11T12:10:20;101211.34;;;20.69
49785;BMP280;35679;38.732;-121.358;2022-08-11T12:13:10;101220.22;;;20.94
49785;BMP280;35679;38.732;-121.358;2022-08-11T12:16:19;101218.13;;;20.96
49785;BMP280;35679;38.732;-121.358;2022-08-11T12:19:25;101217.72;;;20.74
49785;BMP280;35679;38.732;-121.358;2022-08-11T12:22:22;101220.44;;;20.68
49785;BMP280;35679;38.732;-121.358;2022-08-11T12:25:32;101218.78;;;20.67
49785;BMP280;35679;38.732;-121.358;2022-08-11T12:29:03;101222.25;;;20.49
49785;BMP280;35679;38.732;-121.358;2022-08-11T12:31:57;101219.91;;;20.35
49785;BMP280;35679;38.732;-121.358;2022-08-11T12:34:52;101223.25;;;20.55
49785;BMP280;35679;38.732;-121.358;2022-08-11T12:37:51;101217.75;;;20.43
49785;BMP280;35679;38.732;-121.358;2022-08-11T12:40:58;101215.03;;;20.26
49785;BMP280;35679;38.732;-121.358;2022-08-11T12:44:08;101209.78;;;20.06
49785;BMP280;35679;38.732;-121.358;2022-08-11T12:47:19;101212.91;;;20.34
49785;BMP280;35679;38.732;-121.358;2022-08-11T12:50:09;101220.03;;;20.16
49785;BMP280;35679;38.732;-121.358;2022-08-11T12:53:32;101221.34;;;20.31
49785;BMP280;35679;38.732;-121.358;2022-08-11T12:56:21;101222.31;;;20.12
49785;BMP280;35679;38.732;-121.358;2022-08-11T12:59:31;101222.38;;;20.30
49785;BMP280;35679;38.732;-121.358;2022-08-11T13:02:40;101229.13;;;20.15
49785;BMP280;35679;38.732;-121.358;2022-08-11T13:05:51;101230.41;;;20.37
49785;BMP280;35679;38.732;-121.358;2022-08-11T13:08:41;101224.19;;;20.12
49785;BMP280;35679;38.732;-121.358;2022-08-11T13:11:32;101230.19;;;20.07
49785;BMP280;35679;38.732;-121.358;2022-08-11T13:14:43;101225.56;;;19.83
49785;BMP280;35679;38.732;-121.358;2022-08-11T13:17:33;101236.63;;;20.00
49785;BMP280;35679;38.732;-121.358;2022-08-11T13:20:31;101237.09;;;20.21
49785;BMP280;35679;38.732;-121.358;2022-08-11T13:23:22;101240.28;;;20.12
49785;BMP280;35679;38.732;-121.358;2022-08-11T13:26:11;101241.84;;;19.82
49785;BMP280;35679;38.732;-121.358;2022-08-11T13:29:01;101243.53;;;19.76
49785;BMP280;35679;38.732;-121.358;2022-08-11T13:31:54;101250.09;;;19.80
49785;BMP280;35679;38.732;-121.358;2022-08-11T13:34:45;101253.75;;;19.99
49785;BMP280;35679;38.732;-121.358;2022-08-11T13:37:35;101258.72;;;19.89
49785;BMP280;35679;38.732;-121.358;2022-08-11T13:40:44;101260.13;;;19.91
49785;BMP280;35679;38.732;-121.358;2022-08-11T13:43:42;101265.53;;;19.78
49785;BMP280;35679;38.732;-121.358;2022-08-11T13:46:33;101257.72;;;19.77
49785;BMP280;35679;38.732;-121.358;2022-08-11T13:49:22;101260.78;;;19.87
49785;BMP280;35679;38.732;-121.358;2022-08-11T13:52:14;101258.94;;;19.87
49785;BMP280;35679;38.732;-121.358;2022-08-11T13:55:06;101267.97;;;19.93
49785;BMP280;35679;38.732;-121.358;2022-08-11T13:58:17;101264.69;;;19.97
49785;BMP280;35679;38.732;-121.358;2022-08-11T14:01:30;101261.72;;;20.12
49785;BMP280;35679;38.732;-121.358;2022-08-11T14:04:56;101273.13;;;19.94
49785;BMP280;35679;38.732;-121.358;2022-08-11T14:07:51;101277.13;;;19.66
49785;BMP280;35679;38.732;-121.358;2022-08-11T14:10:41;101278.63;;;20.06
49785;BMP280;35679;38.732;-121.358;2022-08-11T14:13:33;101277.41;;;20.08
49785;BMP280;35679;38.732;-121.358;2022-08-11T14:16:41;101274.31;;;20.05
49785;BMP280;35679;38.732;-121.358;2022-08-11T14:19:38;101284.91;;;19.93
49785;BMP280;35679;38.732;-121.358;2022-08-11T14:22:28;101280.31;;;20.00
49785;BMP280;35679;38.732;-121.358;2022-08-11T14:25:18;101283.78;;;20.07
49785;BMP280;35679;38.732;-121.358;2022-08-11T14:28:30;101283.34;;;20.10
49785;BMP280;35679;38.732;-121.358;2022-08-11T14:31:33;101280.03;;;20.15
49785;BMP280;35679;38.732;-121.358;2022-08-11T14:34:26;101286.25;;;20.40
49785;BMP280;35679;38.732;-121.358;2022-08-11T14:37:21;101283.44;;;20.28
49785;BMP280;35679;38.732;-121.358;2022-08-11T14:40:11;101277.63;;;20.38
49785;BMP280;35679;38.732;-121.358;2022-08-11T14:43:21;101281.63;;;20.53
49785;BMP280;35679;38.732;-121.358;2022-08-11T14:46:48;101284.59;;;20.39
49785;BMP280;35679;38.732;-121.358;2022-08-11T14:50:14;101289.44;;;20.54
49785;BMP280;35679;38.732;-121.358;2022-08-11T14:53:09;101289.72;;;20.46
49785;BMP280;35679;38.732;-121.358;2022-08-11T14:56:05;101283.59;;;20.64
49785;BMP280;35679;38.732;-121.358;2022-08-11T14:59:13;101288.78;;;20.59
49785;BMP280;35679;38.732;-121.358;2022-08-11T15:02:04;101291.03;;;20.62
49785;BMP280;35679;38.732;-121.358;2022-08-11T15:05:12;101289.56;;;20.66
49785;BMP280;35679;38.732;-121.358;2022-08-11T15:08:02;101288.84;;;20.83
49785;BMP280;35679;38.732;-121.358;2022-08-11T15:10:52;101296.50;;;20.80
49785;BMP280;35679;38.732;-121.358;2022-08-11T15:13:41;101300.91;;;20.92
49785;BMP280;35679;38.732;-121.358;2022-08-11T15:16:31;101303.59;;;20.92
49785;BMP280;35679;38.732;-121.358;2022-08-11T15:19:40;101302.44;;;21.06
49785;BMP280;35679;38.732;-121.358;2022-08-11T15:22:49;101307.53;;;21.14
49785;BMP280;35679;38.732;-121.358;2022-08-11T15:26:09;101315.13;;;21.17
49785;BMP280;35679;38.732;-121.358;2022-08-11T15:28:59;101313.59;;;21.27
49785;BMP280;35679;38.732;-121.358;2022-08-11T15:32:22;101315.59;;;21.32
49785;BMP280;35679;38.732;-121.358;2022-08-11T15:35:31;101326.28;;;21.38
49785;BMP280;35679;38.732;-121.358;2022-08-11T15:39:17;101324.38;;;21.63
49785;BMP280;35679;38.732;-121.358;2022-08-11T15:42:13;101332.00;;;21.84
49785;BMP280;35679;38.732;-121.358;2022-08-11T15:45:21;101326.81;;;22.00
49785;BMP280;35679;38.732;-121.358;2022-08-11T15:51:40;101329.47;;;22.18
49785;BMP280;35679;38.732;-121.358;2022-08-11T15:54:31;101334.75;;;22.25
49785;BMP280;35679;38.732;-121.358;2022-08-11T15:57:21;101326.63;;;22.31
49785;BMP280;35679;38.732;-121.358;2022-08-11T16:00:29;101324.31;;;22.35
49785;BMP280;35679;38.732;-121.358;2022-08-11T16:04:05;101332.50;;;22.40
49785;BMP280;35679;38.732;-121.358;2022-08-11T16:07:25;101332.88;;;22.43
49785;BMP280;35679;38.732;-121.358;2022-08-11T16:10:16;101336.97;;;22.45
49785;BMP280;35679;38.732;-121.358;2022-08-11T16:13:12;101336.06;;;22.51
49785;BMP280;35679;38.732;-121.358;2022-08-11T16:16:04;101330.22;;;22.54
49785;BMP280;35679;38.732;-121.358;2022-08-11T16:19:04;101328.94;;;22.57
49785;BMP280;35679;38.732;-121.358;2022-08-11T16:21:56;101330.34;;;22.59
49785;BMP280;35679;38.732;-121.358;2022-08-11T16:24:48;101328.81;;;22.63
49785;BMP280;35679;38.732;-121.358;2022-08-11T16:28:02;101322.19;;;22.66
49785;BMP280;35679;38.732;-121.358;2022-08-11T16:31:00;101324.41;;;22.69
49785;BMP280;35679;38.732;-121.358;2022-08-11T16:33:51;101321.47;;;22.70
49785;BMP280;35679;38.732;-121.358;2022-08-11T16:36:41;101321.84;;;22.74
49785;BMP280;35679;38.732;-121.358;2022-08-11T16:39:48;101324.66;;;22.79
49785;BMP280;35679;38.732;-121.358;2022-08-11T16:42:38;101323.59;;;22.80
49785;BMP280;35679;38.732;-121.358;2022-08-11T16:45:59;101314.25;;;22.82
49785;BMP280;35679;38.732;-121.358;2022-08-11T16:49:36;101319.41;;;22.84
49785;BMP280;35679;38.732;-121.358;2022-08-11T16:52:24;101321.03;;;22.85
49785;BMP280;35679;38.732;-121.358;2022-08-11T16:55:13;101321.41;;;22.88
49785;BMP280;35679;38.732;-121.358;2022-08-11T16:58:23;101322.56;;;22.92
49785;BMP280;35679;38.732;-121.358;2022-08-11T17:01:32;101326.06;;;22.93
49785;BMP280;35679;38.732;-121.358;2022-08-11T17:07:39;101327.03;;;22.98
49785;BMP280;35679;38.732;-121.358;2022-08-11T17:11:01;101325.78;;;23.01
49785;BMP280;35679;38.732;-121.358;2022-08-11T17:14:14;101318.06;;;23.04
49785;BMP280;35679;38.732;-121.358;2022-08-11T17:17:37;101336.66;;;23.06
49785;BMP280;35679;38.732;-121.358;2022-08-11T17:20:29;101311.16;;;23.08
49785;BMP280;35679;38.732;-121.358;2022-08-11T17:23:30;101316.88;;;23.12
49785;BMP280;35679;38.732;-121.358;2022-08-11T17:26:42;101320.16;;;23.13
49785;BMP280;35679;38.732;-121.358;2022-08-11T17:29:52;101313.47;;;23.16
49785;BMP280;35679;38.732;-121.358;2022-08-11T17:32:47;101319.47;;;23.18
49785;BMP280;35679;38.732;-121.358;2022-08-11T17:35:55;101319.81;;;23.21
49785;BMP280;35679;38.732;-121.358;2022-08-11T17:38:46;101320.97;;;23.25
49785;BMP280;35679;38.732;-121.358;2022-08-11T17:41:38;101309.97;;;23.27
49785;BMP280;35679;38.732;-121.358;2022-08-11T17:44:47;101315.09;;;23.28
49785;BMP280;35679;38.732;-121.358;2022-08-11T17:47:57;101311.72;;;23.33
49785;BMP280;35679;38.732;-121.358;2022-08-11T17:51:08;101307.72;;;23.35
49785;BMP280;35679;38.732;-121.358;2022-08-11T17:53:59;101311.59;;;23.39
49785;BMP280;35679;38.732;-121.358;2022-08-11T17:57:13;101309.25;;;23.43
49785;BMP280;35679;38.732;-121.358;2022-08-11T18:00:21;101301.50;;;23.46
49785;BMP280;35679;38.732;-121.358;2022-08-11T18:03:16;101303.50;;;23.51
49785;BMP280;35679;38.732;-121.358;2022-08-11T18:06:22;101313.00;;;23.53
49785;BMP280;35679;38.732;-121.358;2022-08-11T18:09:22;101314.16;;;23.57
49785;BMP280;35679;38.732;-121.358;2022-08-11T18:12:30;101309.34;;;23.59
49785;BMP280;35679;38.732;-121.358;2022-08-11T18:15:41;101305.38;;;23.62
49785;BMP280;35679;38.732;-121.358;2022-08-11T18:18:51;101306.28;;;23.67
49785;BMP280;35679;38.732;-121.358;2022-08-11T18:22:08;101306.66;;;23.71
49785;BMP280;35679;38.732;-121.358;2022-08-11T18:25:22;101305.72;;;23.77
49785;BMP280;35679;38.732;-121.358;2022-08-11T18:28:42;101309.06;;;23.83
49785;BMP280;35679;38.732;-121.358;2022-08-11T18:31:50;101311.31;;;23.86
49785;BMP280;35679;38.732;-121.358;2022-08-11T18:35:10;101311.66;;;23.90
49785;BMP280;35679;38.732;-121.358;2022-08-11T18:38:21;101297.19;;;23.96
49785;BMP280;35679;38.732;-121.358;2022-08-11T18:41:35;101301.88;;;24.00
49785;BMP280;35679;38.732;-121.358;2022-08-11T18:44:44;101298.22;;;24.06
49785;BMP280;35679;38.732;-121.358;2022-08-11T18:48:00;101292.34;;;24.09
49785;BMP280;35679;38.732;-121.358;2022-08-11T18:51:10;101298.06;;;24.13
49785;BMP280;35679;38.732;-121.358;2022-08-11T18:54:25;101288.22;;;24.18
49785;BMP280;35679;38.732;-121.358;2022-08-11T18:57:40;101286.66;;;24.22
49785;BMP280;35679;38.732;-121.358;2022-08-11T19:00:49;101276.78;;;24.28
49785;BMP280;35679;38.732;-121.358;2022-08-11T19:04:01;101283.09;;;24.33
49785;BMP280;35679;38.732;-121.358;2022-08-11T19:07:10;101276.38;;;24.36
49785;BMP280;35679;38.732;-121.358;2022-08-11T19:10:19;101277.31;;;24.41
49785;BMP280;35679;38.732;-121.358;2022-08-11T19:13:30;101273.06;;;24.45
49785;BMP280;35679;38.732;-121.358;2022-08-11T19:16:40;101261.81;;;24.48
49785;BMP280;35679;38.732;-121.358;2022-08-11T19:19:50;101264.00;;;24.51
49785;BMP280;35679;38.732;-121.358;2022-08-11T19:22:58;101261.63;;;24.54
49785;BMP280;35679;38.732;-121.358;2022-08-11T19:26:08;101263.59;;;24.59
49785;BMP280;35679;38.732;-121.358;2022-08-11T19:29:18;101259.34;;;24.63
49785;BMP280;35679;38.732;-121.358;2022-08-11T19:32:47;101258.84;;;24.66
49785;BMP280;35679;38.732;-121.358;2022-08-11T19:35:56;101252.47;;;24.72
49785;BMP280;35679;38.732;-121.358;2022-08-11T19:39:06;101252.00;;;24.75
49785;BMP280;35679;38.732;-121.358;2022-08-11T19:42:16;101249.63;;;24.78
49785;BMP280;35679;38.732;-121.358;2022-08-11T19:45:25;101252.63;;;24.82
49785;BMP280;35679;38.732;-121.358;2022-08-11T19:48:41;101241.09;;;24.86
49785;BMP280;35679;38.732;-121.358;2022-08-11T19:51:50;101238.72;;;24.90
49785;BMP280;35679;38.732;-121.358;2022-08-11T19:54:58;101233.41;;;24.95
49785;BMP280;35679;38.732;-121.358;2022-08-11T19:58:07;101240.19;;;24.97